createdAt,value
2023-03-29T00:02:33.811Z,6.70
2023-03-29T00:06:39.465Z,5.88
2023-03-29T00:10:43.359Z,10.63
2023-03-29T00:14:46.597Z,8.50
2023-03-29T00:18:51.329Z,7.45
2023-03-29T00:22:54.439Z,6.05
2023-03-29T00:26:57.569Z,5.80
2023-03-29T00:31:11.493Z,7.80
2023-03-29T00:35:16.787Z,4.53
2023-03-29T00:39:20.953Z,10.77
2023-03-29T00:43:24.209Z,3.85
2023-03-29T00:47:32.859Z,11.10
2023-03-29T00:51:39.862Z,7.63
2023-03-29T00:55:48.808Z,4.82
2023-03-29T00:59:53.876Z,8.70
2023-03-29T01:04:05.097Z,3.88
2023-03-29T01:08:18.608Z,7.47
2023-03-29T01:12:25.743Z,6.93
2023-03-29T01:16:30.608Z,5.20
2023-03-29T01:20:49.225Z,5.75
2023-03-29T01:25:07.419Z,7.10
2023-03-29T01:29:15.600Z,7.10
2023-03-29T01:33:23.674Z,9.35
2023-03-29T01:37:34.101Z,4.90
2023-03-29T01:41:47.330Z,7.70
2023-03-29T01:45:56.842Z,8.15
2023-03-29T01:50:08.263Z,10.50
2023-03-29T01:54:16.007Z,7.50
2023-03-29T01:58:21.162Z,9.52
2023-03-29T02:02:28.745Z,7.15
2023-03-29T02:06:36.247Z,7.22
2023-03-29T02:10:39.945Z,6.88
2023-03-29T02:14:43.484Z,9.00
2023-03-29T02:18:50.696Z,12.07
2023-03-29T02:22:58.766Z,4.38
2023-03-29T02:27:02.660Z,12.52
2023-03-29T02:31:12.632Z,11.95
2023-03-29T02:35:22.071Z,10.15
2023-03-29T02:39:27.417Z,8.65
2023-03-29T02:43:31.310Z,7.32
2023-03-29T02:47:39.896Z,6.80
2023-03-29T02:51:49.071Z,9.60
2023-03-29T02:55:54.109Z,6.45
2023-03-29T03:00:00.135Z,6.03
2023-03-29T03:04:03.877Z,11.55
2023-03-29T03:08:09.175Z,5.97
2023-03-29T03:12:14.974Z,9.68
2023-03-29T03:20:41.225Z,8.98
2023-03-29T03:24:46.359Z,5.55
2023-03-29T03:28:49.487Z,8.95
2023-03-29T03:32:52.246Z,7.97
2023-03-29T03:36:57.756Z,4.88
2023-03-29T03:41:03.297Z,11.80
2023-03-29T03:45:08.507Z,8.07
2023-03-29T03:49:11.477Z,5.65
2023-03-29T03:53:15.320Z,10.00
2023-03-29T03:57:19.920Z,10.15
2023-03-29T04:01:22.884Z,9.98
2023-03-29T04:05:25.867Z,6.85
2023-03-29T04:09:29.813Z,8.30
2023-03-29T04:13:35.115Z,6.97
2023-03-29T04:17:38.239Z,7.45
2023-03-29T04:21:40.948Z,7.93
2023-03-29T04:25:43.986Z,12.70
2023-03-29T04:29:49.088Z,10.43
2023-03-29T04:33:52.307Z,7.47
2023-03-29T04:37:55.946Z,7.50
2023-03-29T04:41:59.030Z,9.65
2023-03-29T04:46:03.495Z,9.43
2023-03-29T04:50:09.047Z,6.35
2023-03-29T04:54:11.968Z,12.30
2023-03-29T04:58:15.204Z,8.18
2023-03-29T05:02:20.233Z,7.05
2023-03-29T05:06:23.180Z,10.32
2023-03-29T05:10:26.019Z,9.52
2023-03-29T05:14:28.991Z,10.23
2023-03-29T05:18:33.082Z,6.28
2023-03-29T05:22:36.547Z,7.00
2023-03-29T05:26:40.215Z,9.18
2023-03-29T05:30:43.316Z,5.38
2023-03-29T05:34:47.519Z,7.40
2023-03-29T05:38:52.458Z,13.57
2023-03-29T05:42:55.345Z,3.90
2023-03-29T05:47:01.699Z,6.22
2023-03-29T05:51:06.469Z,6.97
2023-03-29T05:55:10.633Z,7.55
2023-03-29T05:59:13.909Z,7.20
2023-03-29T06:03:21.131Z,8.43
2023-03-29T06:07:27.193Z,6.65
2023-03-29T06:11:30.739Z,6.63
2023-03-29T06:15:33.604Z,9.57
2023-03-29T06:19:36.845Z,9.43
2023-03-29T06:23:42.082Z,6.85
2023-03-29T06:27:46.904Z,5.75
2023-03-29T06:31:50.346Z,11.05
2023-03-29T06:35:53.624Z,8.95
2023-03-29T06:39:58.253Z,8.27
2023-03-29T06:44:01.646Z,7.72
2023-03-29T06:48:06.590Z,5.40
2023-03-29T06:52:10.356Z,9.40
2023-03-29T06:56:14.934Z,5.82
2023-03-29T07:00:28.235Z,8.13
2023-03-29T07:04:32.685Z,8.55
2023-03-29T07:08:43.323Z,7.50
2023-03-29T07:12:48.309Z,7.47
2023-03-29T07:16:52.170Z,8.85
2023-03-29T07:20:55.068Z,5.28
2023-03-29T07:24:58.358Z,4.50
2023-03-29T07:29:05.267Z,8.23
2023-03-29T07:33:09.767Z,6.65
2023-03-29T07:37:12.553Z,5.60
2023-03-29T07:41:15.867Z,4.35
2023-03-29T07:45:26.630Z,4.43
2023-03-29T07:49:31.307Z,4.75
2023-03-29T07:53:34.233Z,3.10
2023-03-29T07:57:37.413Z,4.80
2023-03-29T08:01:42.352Z,5.13
2023-03-29T08:05:46.249Z,5.72
2023-03-29T08:09:49.316Z,10.55
2023-03-29T08:13:53.080Z,5.57
2023-03-29T08:17:57.360Z,5.07
2023-03-29T08:22:02.955Z,5.03
2023-03-29T08:26:08.821Z,5.78
2023-03-29T08:30:12.636Z,4.72
2023-03-29T08:34:16.766Z,3.83
2023-03-29T08:38:19.933Z,4.20
2023-03-29T08:42:41.988Z,5.93
2023-03-29T08:46:50.863Z,4.90
2023-03-29T08:51:02.282Z,4.05
2023-03-29T08:55:15.704Z,2.83
2023-03-29T08:59:23.242Z,21.17
2023-03-29T09:03:30.136Z,3.13
2023-03-29T09:07:34.620Z,3.50
2023-03-29T09:11:56.386Z,3.03
2023-03-29T09:16:12.031Z,3.05
2023-03-29T09:20:25.201Z,2.83
2023-03-29T09:24:48.389Z,2.17
2023-03-29T09:29:02.946Z,2.92
2023-03-29T09:33:13.831Z,2.78
2023-03-29T09:37:24.807Z,2.80
2023-03-29T09:41:35.749Z,3.15
2023-03-29T09:45:42.093Z,4.15
2023-03-29T09:49:51.432Z,3.63
2023-03-29T09:53:59.688Z,2.90
2023-03-29T09:58:14.679Z,3.55
2023-03-29T10:02:21.464Z,2.50
2023-03-29T10:06:27.042Z,2.70
2023-03-29T10:10:34.989Z,2.63
2023-03-29T10:14:43.904Z,5.97
2023-03-29T10:18:47.490Z,2.50
2023-03-29T10:22:58.433Z,2.88
2023-03-29T10:27:04.000Z,2.78
2023-03-29T10:31:09.454Z,2.95
2023-03-29T10:35:23.856Z,3.17
2023-03-29T10:39:32.174Z,2.70
2023-03-29T10:43:39.526Z,3.20
2023-03-29T10:47:46.919Z,3.60
2023-03-29T10:51:51.776Z,3.30
2023-03-29T10:56:05.698Z,4.38
2023-03-29T11:00:19.967Z,7.50
2023-03-29T11:04:38.218Z,3.13
2023-03-29T11:08:50.800Z,5.25
2023-03-29T11:13:01.579Z,6.03
2023-03-29T11:17:17.435Z,4.13
2023-03-29T11:21:30.447Z,4.55
2023-03-29T11:25:43.433Z,5.75
2023-03-29T11:29:58.819Z,6.65
2023-03-29T11:34:17.829Z,3.28
2023-03-29T11:38:28.270Z,6.07
2023-03-29T11:42:34.673Z,5.60
2023-03-29T11:46:41.871Z,4.10
2023-03-29T11:50:52.598Z,6.13
2023-03-29T11:55:04.129Z,5.32
2023-03-29T11:59:14.803Z,3.95
2023-03-29T12:03:24.056Z,3.67
2023-03-29T12:07:33.228Z,4.70
2023-03-29T12:11:41.809Z,4.32
2023-03-29T12:15:49.739Z,4.18
2023-03-29T12:20:04.545Z,4.70
2023-03-29T12:24:08.274Z,3.92
2023-03-29T12:28:29.417Z,5.65
2023-03-29T12:32:50.839Z,4.88
2023-03-29T12:37:12.483Z,4.85
2023-03-29T12:41:21.910Z,4.25
2023-03-29T12:45:33.955Z,3.85
2023-03-29T12:49:39.720Z,3.40
2023-03-29T12:53:49.523Z,4.93
2023-03-29T12:58:06.139Z,4.43
2023-03-29T13:02:35.001Z,5.10
2023-03-29T13:07:05.694Z,2.45
2023-03-29T13:11:14.780Z,3.38
2023-03-29T13:15:25.454Z,4.40
2023-03-29T13:19:39.901Z,4.20
2023-03-29T13:23:54.634Z,4.47
2023-03-29T13:28:06.387Z,6.05
2023-03-29T13:32:34.956Z,3.45
2023-03-29T13:36:55.101Z,4.55
2023-03-29T13:41:03.742Z,3.92
2023-03-29T13:45:18.744Z,3.08
2023-03-29T13:49:25.817Z,6.70
2023-03-29T13:53:35.134Z,3.85
2023-03-29T13:57:43.869Z,3.75
2023-03-29T14:01:53.633Z,4.57
2023-03-29T14:06:01.429Z,4.65
2023-03-29T14:10:08.129Z,5.15
2023-03-29T14:14:12.903Z,5.20
2023-03-29T14:18:19.428Z,4.60
2023-03-29T14:22:22.768Z,3.92
2023-03-29T14:30:35.365Z,3.67
2023-03-29T14:34:40.721Z,7.25
2023-03-29T14:38:48.666Z,7.00
2023-03-29T14:42:53.455Z,7.20
2023-03-29T14:46:57.444Z,4.30
2023-03-29T14:51:00.758Z,4.38
2023-03-29T14:55:04.735Z,5.00
2023-03-29T14:59:26.488Z,4.95
2023-03-29T15:03:29.616Z,4.47
2023-03-29T15:07:34.685Z,5.65
2023-03-29T15:11:40.100Z,5.63
2023-03-29T15:15:45.280Z,3.75
2023-03-29T15:19:48.493Z,6.57
2023-03-29T15:24:00.176Z,3.50
2023-03-29T15:28:03.137Z,6.15
2023-03-29T15:32:10.283Z,6.40
2023-03-29T15:36:14.720Z,8.32
2023-03-29T15:40:21.545Z,7.50
2023-03-29T15:44:28.652Z,5.13
2023-03-29T15:48:34.008Z,5.15
2023-03-29T15:52:37.217Z,8.13
2023-03-29T15:56:48.816Z,8.23
2023-03-29T16:00:55.725Z,7.20
2023-03-29T16:05:01.949Z,7.65
2023-03-29T16:09:08.847Z,5.72
2023-03-29T16:13:14.696Z,7.10
2023-03-29T16:17:17.843Z,7.43
2023-03-29T16:21:24.519Z,7.47
2023-03-29T16:25:27.620Z,10.63
2023-03-29T16:29:30.828Z,11.50
2023-03-29T16:33:33.869Z,8.73
2023-03-29T16:37:38.396Z,10.40
2023-03-29T16:41:42.314Z,14.57
2023-03-29T16:45:46.398Z,13.23
2023-03-29T16:49:49.325Z,14.57
2023-03-29T16:53:54.327Z,7.88
2023-03-29T16:57:57.692Z,7.20
2023-03-29T17:02:03.247Z,5.40
2023-03-29T17:06:07.706Z,5.93
2023-03-29T17:10:13.443Z,5.85
2023-03-29T17:14:16.086Z,5.55
2023-03-29T17:18:19.320Z,5.45
2023-03-29T17:22:22.906Z,5.82
2023-03-29T17:26:27.684Z,9.27
2023-03-29T17:30:31.151Z,18.20
2023-03-29T17:34:34.343Z,13.52
2023-03-29T17:38:38.242Z,16.50
2023-03-29T17:42:46.647Z,14.20
2023-03-29T17:46:49.665Z,16.30
2023-03-29T17:50:52.923Z,12.48
2023-03-29T17:54:56.054Z,16.30
2023-03-29T17:59:00.696Z,18.60
2023-03-29T18:03:03.725Z,14.93
2023-03-29T18:07:06.918Z,15.45
2023-03-29T18:11:12.404Z,16.85
2023-03-29T18:15:16.922Z,24.55
2023-03-29T18:19:20.087Z,18.75
2023-03-29T18:23:26.460Z,22.58
2023-03-29T18:27:29.563Z,20.73
2023-03-29T18:31:33.990Z,27.90
2023-03-29T18:35:39.353Z,22.77
2023-03-29T18:39:43.357Z,23.77
2023-03-29T18:43:47.934Z,23.48
2023-03-29T18:47:56.121Z,27.00
2023-03-29T18:51:58.965Z,23.23
2023-03-29T18:56:03.021Z,24.75
2023-03-29T19:00:12.812Z,25.98
2023-03-29T19:04:17.022Z,27.48
2023-03-29T19:08:19.890Z,27.13
2023-03-29T19:12:22.846Z,27.45
2023-03-29T19:16:27.681Z,23.30
2023-03-29T19:20:32.165Z,21.10
2023-03-29T19:24:35.315Z,18.40
2023-03-29T19:28:37.850Z,17.20
2023-03-29T19:32:40.608Z,17.80
2023-03-29T19:36:44.847Z,22.38
2023-03-29T19:40:48.183Z,18.08
2023-03-29T19:44:51.300Z,16.60
2023-03-29T19:48:58.040Z,17.15
2023-03-29T19:53:02.401Z,17.20
2023-03-29T19:57:07.414Z,16.40
2023-03-29T20:01:10.471Z,20.30
2023-03-29T20:05:16.874Z,19.60
2023-03-29T20:09:21.210Z,23.02
2023-03-29T20:13:37.394Z,22.42
2023-03-29T20:17:42.016Z,22.90
2023-03-29T20:21:44.999Z,26.70
2023-03-29T20:29:52.678Z,19.35
2023-03-29T20:33:57.546Z,23.20
2023-03-29T20:38:00.879Z,19.98
2023-03-29T20:42:06.568Z,20.80
2023-03-29T20:46:18.554Z,23.50
2023-03-29T20:50:26.505Z,22.58
2023-03-29T20:54:29.404Z,24.98
2023-03-29T20:58:34.250Z,22.48
2023-03-29T21:02:38.344Z,22.95
2023-03-29T21:06:41.682Z,24.52
2023-03-29T21:10:48.086Z,16.40
2023-03-29T21:14:52.111Z,19.88
2023-03-29T21:18:55.063Z,15.77
2023-03-29T21:22:58.386Z,16.05
2023-03-29T21:27:02.028Z,13.50
2023-03-29T21:31:08.400Z,15.32
2023-03-29T21:35:13.030Z,14.65
2023-03-29T21:39:17.734Z,12.73
2023-03-29T21:43:23.095Z,12.35
2023-03-29T21:47:27.536Z,16.58
2023-03-29T21:51:30.097Z,11.43
2023-03-29T21:55:36.410Z,10.57
2023-03-29T21:59:39.363Z,10.13
2023-03-29T22:03:43.509Z,10.30
2023-03-29T22:07:50.548Z,10.77
2023-03-29T22:11:53.587Z,14.05
2023-03-29T22:16:00.167Z,12.25
2023-03-29T22:20:14.134Z,11.32
2023-03-29T22:24:17.896Z,12.18
2023-03-29T22:28:20.945Z,13.10
2023-03-29T22:32:23.831Z,14.23
2023-03-29T22:36:29.788Z,14.35
2023-03-29T22:40:33.521Z,13.30
2023-03-29T22:44:36.589Z,15.57
2023-03-29T22:48:40.062Z,14.52
2023-03-29T22:52:44.784Z,14.32
2023-03-29T22:56:48.046Z,14.93
2023-03-29T23:00:54.125Z,14.90
2023-03-29T23:04:57.107Z,16.40
2023-03-29T23:09:04.712Z,15.45
2023-03-29T23:13:10.206Z,12.48
2023-03-29T23:17:13.649Z,13.45
2023-03-29T23:25:21.102Z,15.05
2023-03-29T23:29:27.002Z,13.15
2023-03-29T23:33:33.679Z,14.23
2023-03-29T23:37:38.062Z,13.82
2023-03-29T23:41:42.606Z,14.32
2023-03-29T23:45:45.589Z,13.48
2023-03-29T23:49:48.522Z,14.80
2023-03-29T23:53:51.974Z,13.27
2023-03-29T23:57:56.390Z,10.80
